sensor_id;sensor_type;location;lat;lon;timestamp;P1;durP1;ratioP1;P2;durP2;ratioP2
56242;SDS011;42155;53.096;23.226;2023-01-26T00:00:19;91.40;;;30.65;;
56242;SDS011;42155;53.096;23.226;2023-01-26T00:02:19;92.30;;;30.83;;
56242;SDS011;42155;53.096;23.226;2023-01-26T00:04:19;95.28;;;33.25;;
56242;SDS011;42155;53.096;23.226;2023-01-26T00:06:20;91.25;;;31.33;;
56242;SDS011;42155;53.096;23.226;2023-01-26T00:08:21;88.30;;;30.77;;
56242;SDS011;42155;53.096;23.226;2023-01-26T00:10:22;86.78;;;30.50;;
56242;SDS011;42155;53.096;23.226;2023-01-26T00:12:22;85.70;;;29.15;;
56242;SDS011;42155;53.096;23.226;2023-01-26T00:14:22;89.72;;;29.25;;
56242;SDS011;42155;53.096;23.226;2023-01-26T00:16:23;92.03;;;30.65;;
56242;SDS011;42155;53.096;23.226;2023-01-26T00:18:24;96.47;;;31.85;;
56242;SDS011;42155;53.096;23.226;2023-01-26T00:20:24;98.95;;;33.22;;
56242;SDS011;42155;53.096;23.226;2023-01-26T00:22:25;93.70;;;31.73;;
56242;SDS011;42155;53.096;23.226;2023-01-26T00:24:26;97.80;;;32.50;;
56242;SDS011;42155;53.096;23.226;2023-01-26T00:26:26;97.85;;;33.63;;
56242;SDS011;42155;53.096;23.226;2023-01-26T00:28:27;99.35;;;33.20;;
56242;SDS011;42155;53.096;23.226;2023-01-26T00:30:28;93.32;;;30.70;;
56242;SDS011;42155;53.096;23.226;2023-01-26T00:32:28;94.65;;;32.55;;
56242;SDS011;42155;53.096;23.226;2023-01-26T00:34:28;90.00;;;31.80;;
56242;SDS011;42155;53.096;23.226;2023-01-26T00:36:29;94.18;;;34.17;;
56242;SDS011;42155;53.096;23.226;2023-01-26T00:38:29;94.75;;;31.38;;
56242;SDS011;42155;53.096;23.226;2023-01-26T00:40:29;99.68;;;32.20;;
56242;SDS011;42155;53.096;23.226;2023-01-26T00:42:30;94.30;;;30.98;;
56242;SDS011;42155;53.096;23.226;2023-01-26T00:44:31;95.70;;;31.85;;
56242;SDS011;42155;53.096;23.226;2023-01-26T00:46:31;102.80;;;34.85;;
56242;SDS011;42155;53.096;23.226;2023-01-26T00:48:32;102.57;;;33.53;;
56242;SDS011;42155;53.096;23.226;2023-01-26T00:50:32;104.80;;;34.83;;
56242;SDS011;42155;53.096;23.226;2023-01-26T00:52:32;101.03;;;32.72;;
56242;SDS011;42155;53.096;23.226;2023-01-26T00:54:33;96.97;;;32.42;;
56242;SDS011;42155;53.096;23.226;2023-01-26T00:56:33;96.85;;;33.42;;
56242;SDS011;42155;53.096;23.226;2023-01-26T00:58:33;105.25;;;34.30;;
56242;SDS011;42155;53.096;23.226;2023-01-26T01:00:35;107.60;;;35.10;;
56242;SDS011;42155;53.096;23.226;2023-01-26T01:02:37;109.05;;;35.92;;
56242;SDS011;42155;53.096;23.226;2023-01-26T01:04:37;102.07;;;35.65;;
56242;SDS011;42155;53.096;23.226;2023-01-26T01:06:37;106.28;;;34.88;;
56242;SDS011;42155;53.096;23.226;2023-01-26T01:08:38;99.82;;;34.45;;
56242;SDS011;42155;53.096;23.226;2023-01-26T01:10:38;113.25;;;36.33;;
56242;SDS011;42155;53.096;23.226;2023-01-26T01:12:38;114.03;;;36.17;;
56242;SDS011;42155;53.096;23.226;2023-01-26T01:14:39;109.05;;;37.50;;
56242;SDS011;42155;53.096;23.226;2023-01-26T01:16:40;104.50;;;36.00;;
56242;SDS011;42155;53.096;23.226;2023-01-26T01:18:41;114.93;;;36.35;;
56242;SDS011;42155;53.096;23.226;2023-01-26T01:20:41;105.47;;;35.45;;
56242;SDS011;42155;53.096;23.226;2023-01-26T01:22:42;104.68;;;35.53;;
56242;SDS011;42155;53.096;23.226;2023-01-26T01:24:42;112.35;;;36.42;;
56242;SDS011;42155;53.096;23.226;2023-01-26T01:26:42;108.13;;;34.63;;
56242;SDS011;42155;53.096;23.226;2023-01-26T01:28:43;104.88;;;36.30;;
56242;SDS011;42155;53.096;23.226;2023-01-26T01:30:43;106.38;;;34.88;;
56242;SDS011;42155;53.096;23.226;2023-01-26T01:32:44;103.40;;;34.80;;
56242;SDS011;42155;53.096;23.226;2023-01-26T01:34:47;112.40;;;37.78;;
56242;SDS011;42155;53.096;23.226;2023-01-26T01:36:48;112.82;;;37.20;;
56242;SDS011;42155;53.096;23.226;2023-01-26T01:38:48;106.82;;;35.63;;
56242;SDS011;42155;53.096;23.226;2023-01-26T01:40:49;111.05;;;35.90;;
56242;SDS011;42155;53.096;23.226;2023-01-26T01:42:50;112.55;;;35.72;;
56242;SDS011;42155;53.096;23.226;2023-01-26T01:47:25;100.38;;;33.97;;
56242;SDS011;42155;53.096;23.226;2023-01-26T01:49:27;109.75;;;35.78;;
56242;SDS011;42155;53.096;23.226;2023-01-26T01:51:35;105.15;;;36.10;;
56242;SDS011;42155;53.096;23.226;2023-01-26T01:53:41;97.75;;;32.60;;
56242;SDS011;42155;53.096;23.226;2023-01-26T01:55:46;97.85;;;33.95;;
56242;SDS011;42155;53.096;23.226;2023-01-26T01:57:47;104.38;;;34.40;;
56242;SDS011;42155;53.096;23.226;2023-01-26T01:59:56;92.78;;;30.50;;
56242;SDS011;42155;53.096;23.226;2023-01-26T02:02:04;101.78;;;32.35;;
56242;SDS011;42155;53.096;23.226;2023-01-26T02:04:04;92.03;;;32.58;;
56242;SDS011;42155;53.096;23.226;2023-01-26T02:06:11;99.82;;;32.75;;
56242;SDS011;42155;53.096;23.226;2023-01-26T02:08:13;88.93;;;29.85;;
56242;SDS011;42155;53.096;23.226;2023-01-26T02:10:17;101.55;;;32.85;;
56242;SDS011;42155;53.096;23.226;2023-01-26T02:12:20;93.13;;;31.38;;
56242;SDS011;42155;53.096;23.226;2023-01-26T02:14:22;92.93;;;31.52;;
56242;SDS011;42155;53.096;23.226;2023-01-26T02:16:23;92.10;;;31.00;;
56242;SDS011;42155;53.096;23.226;2023-01-26T02:18:24;95.20;;;31.27;;
56242;SDS011;42155;53.096;23.226;2023-01-26T02:20:27;88.97;;;28.80;;
56242;SDS011;42155;53.096;23.226;2023-01-26T02:26:37;85.03;;;28.58;;
56242;SDS011;42155;53.096;23.226;2023-01-26T02:28:38;88.72;;;29.45;;
56242;SDS011;42155;53.096;23.226;2023-01-26T02:30:40;91.82;;;29.05;;
56242;SDS011;42155;53.096;23.226;2023-01-26T02:32:40;88.85;;;30.33;;
56242;SDS011;42155;53.096;23.226;2023-01-26T02:34:41;95.28;;;29.52;;
56242;SDS011;42155;53.096;23.226;2023-01-26T02:36:41;93.13;;;31.45;;
56242;SDS011;42155;53.096;23.226;2023-01-26T02:38:42;99.80;;;31.38;;
56242;SDS011;42155;53.096;23.226;2023-01-26T02:40:50;86.60;;;28.08;;
56242;SDS011;42155;53.096;23.226;2023-01-26T02:42:55;91.18;;;31.77;;
56242;SDS011;42155;53.096;23.226;2023-01-26T02:44:55;94.40;;;30.42;;
56242;SDS011;42155;53.096;23.226;2023-01-26T02:46:55;96.43;;;30.30;;
56242;SDS011;42155;53.096;23.226;2023-01-26T02:48:56;86.80;;;27.75;;
56242;SDS011;42155;53.096;23.226;2023-01-26T02:50:56;87.20;;;29.17;;
56242;SDS011;42155;53.096;23.226;2023-01-26T02:52:57;89.10;;;30.80;;
56242;SDS011;42155;53.096;23.226;2023-01-26T02:54:58;94.65;;;29.73;;
56242;SDS011;42155;53.096;23.226;2023-01-26T02:56:58;96.88;;;29.88;;
56242;SDS011;42155;53.096;23.226;2023-01-26T02:58:59;89.55;;;28.55;;
56242;SDS011;42155;53.096;23.226;2023-01-26T03:00:59;88.07;;;27.65;;
56242;SDS011;42155;53.096;23.226;2023-01-26T03:02:59;91.78;;;28.65;;
56242;SDS011;42155;53.096;23.226;2023-01-26T03:05:00;88.40;;;27.48;;
56242;SDS011;42155;53.096;23.226;2023-01-26T03:07:01;76.82;;;24.92;;
56242;SDS011;42155;53.096;23.226;2023-01-26T03:09:01;77.70;;;25.27;;
56242;SDS011;42155;53.096;23.226;2023-01-26T03:11:02;88.25;;;27.35;;
56242;SDS011;42155;53.096;23.226;2023-01-26T03:13:03;81.85;;;27.20;;
56242;SDS011;42155;53.096;23.226;2023-01-26T03:15:03;88.95;;;30.00;;
56242;SDS011;42155;53.096;23.226;2023-01-26T03:17:04;86.05;;;26.67;;
56242;SDS011;42155;53.096;23.226;2023-01-26T03:19:05;80.13;;;26.40;;
56242;SDS011;42155;53.096;23.226;2023-01-26T03:21:14;86.35;;;27.52;;
56242;SDS011;42155;53.096;23.226;2023-01-26T03:23:15;85.93;;;26.40;;
56242;SDS011;42155;53.096;23.226;2023-01-26T03:25:16;82.15;;;27.25;;
56242;SDS011;42155;53.096;23.226;2023-01-26T03:27:16;80.47;;;27.45;;
56242;SDS011;42155;53.096;23.226;2023-01-26T03:29:16;82.07;;;26.95;;
56242;SDS011;42155;53.096;23.226;2023-01-26T03:31:17;83.32;;;27.65;;
56242;SDS011;42155;53.096;23.226;2023-01-26T03:33:17;78.20;;;26.52;;
56242;SDS011;42155;53.096;23.226;2023-01-26T03:35:18;82.00;;;26.17;;
56242;SDS011;42155;53.096;23.226;2023-01-26T03:37:19;81.07;;;26.92;;
56242;SDS011;42155;53.096;23.226;2023-01-26T03:39:19;84.68;;;26.77;;
56242;SDS011;42155;53.096;23.226;2023-01-26T03:41:19;83.75;;;26.88;;
56242;SDS011;42155;53.096;23.226;2023-01-26T03:43:20;92.80;;;27.63;;
56242;SDS011;42155;53.096;23.226;2023-01-26T03:45:20;79.05;;;26.67;;
56242;SDS011;42155;53.096;23.226;2023-01-26T03:47:20;85.97;;;27.10;;
56242;SDS011;42155;53.096;23.226;2023-01-26T03:49:21;84.72;;;27.58;;
56242;SDS011;42155;53.096;23.226;2023-01-26T03:51:21;82.22;;;26.67;;
56242;SDS011;42155;53.096;23.226;2023-01-26T03:53:22;82.30;;;25.33;;
56242;SDS011;42155;53.096;23.226;2023-01-26T03:55:23;86.25;;;27.40;;
56242;SDS011;42155;53.096;23.226;2023-01-26T03:57:23;80.38;;;27.90;;
56242;SDS011;42155;53.096;23.226;2023-01-26T03:59:24;78.70;;;26.15;;
56242;SDS011;42155;53.096;23.226;2023-01-26T04:01:24;80.88;;;25.48;;
56242;SDS011;42155;53.096;23.226;2023-01-26T04:03:25;75.65;;;25.70;;
56242;SDS011;42155;53.096;23.226;2023-01-26T04:05:26;81.20;;;25.92;;
56242;SDS011;42155;53.096;23.226;2023-01-26T04:07:26;74.43;;;25.02;;
56242;SDS011;42155;53.096;23.226;2023-01-26T04:09:26;79.93;;;25.92;;
56242;SDS011;42155;53.096;23.226;2023-01-26T04:11:27;88.45;;;26.63;;
56242;SDS011;42155;53.096;23.226;2023-01-26T04:13:28;82.75;;;25.05;;
56242;SDS011;42155;53.096;23.226;2023-01-26T04:15:28;75.10;;;24.52;;
56242;SDS011;42155;53.096;23.226;2023-01-26T04:17:28;82.88;;;26.55;;
56242;SDS011;42155;53.096;23.226;2023-01-26T04:19:29;78.40;;;26.02;;
56242;SDS011;42155;53.096;23.226;2023-01-26T04:21:29;75.25;;;25.88;;
56242;SDS011;42155;53.096;23.226;2023-01-26T04:23:29;83.97;;;26.08;;
56242;SDS011;42155;53.096;23.226;2023-01-26T04:25:30;77.95;;;24.85;;
56242;SDS011;42155;53.096;23.226;2023-01-26T04:27:30;86.30;;;27.00;;
56242;SDS011;42155;53.096;23.226;2023-01-26T04:29:30;79.88;;;25.77;;
56242;SDS011;42155;53.096;23.226;2023-01-26T04:31:31;83.07;;;25.58;;
56242;SDS011;42155;53.096;23.226;2023-01-26T04:33:31;84.97;;;26.50;;
56242;SDS011;42155;53.096;23.226;2023-01-26T04:35:32;79.50;;;25.30;;
56242;SDS011;42155;53.096;23.226;2023-01-26T04:37:32;83.15;;;26.40;;
56242;SDS011;42155;53.096;23.226;2023-01-26T04:39:33;86.28;;;26.67;;
56242;SDS011;42155;53.096;23.226;2023-01-26T04:41:33;75.57;;;25.17;;
56242;SDS011;42155;53.096;23.226;2023-01-26T04:43:34;81.90;;;25.17;;
56242;SDS011;42155;53.096;23.226;2023-01-26T04:45:34;82.45;;;27.23;;
56242;SDS011;42155;53.096;23.226;2023-01-26T04:47:34;84.47;;;25.98;;
56242;SDS011;42155;53.096;23.226;2023-01-26T04:49:35;86.28;;;25.98;;
56242;SDS011;42155;53.096;23.226;2023-01-26T04:51:36;85.95;;;26.38;;
56242;SDS011;42155;53.096;23.226;2023-01-26T04:53:37;81.15;;;26.20;;
56242;SDS011;42155;53.096;23.226;2023-01-26T04:55:37;88.20;;;26.88;;
56242;SDS011;42155;53.096;23.226;2023-01-26T04:57:37;77.15;;;26.27;;
56242;SDS011;42155;53.096;23.226;2023-01-26T04:59:38;85.13;;;28.98;;
56242;SDS011;42155;53.096;23.226;2023-01-26T05:01:38;86.40;;;27.02;;
56242;SDS011;42155;53.096;23.226;2023-01-26T05:03:38;87.25;;;28.02;;
56242;SDS011;42155;53.096;23.226;2023-01-26T05:05:39;85.80;;;27.80;;
56242;SDS011;42155;53.096;23.226;2023-01-26T05:07:39;89.63;;;26.67;;
56242;SDS011;42155;53.096;23.226;2023-01-26T05:09:39;81.05;;;25.83;;
56242;SDS011;42155;53.096;23.226;2023-01-26T05:11:40;92.88;;;28.80;;
56242;SDS011;42155;53.096;23.226;2023-01-26T05:13:40;81.10;;;26.38;;
56242;SDS011;42155;53.096;23.226;2023-01-26T05:15:40;89.43;;;27.75;;
56242;SDS011;42155;53.096;23.226;2023-01-26T05:17:41;86.68;;;28.30;;
56242;SDS011;42155;53.096;23.226;2023-01-26T05:19:41;87.88;;;29.02;;
56242;SDS011;42155;53.096;23.226;2023-01-26T05:21:41;89.70;;;28.20;;
56242;SDS011;42155;53.096;23.226;2023-01-26T05:23:42;92.10;;;29.38;;
56242;SDS011;42155;53.096;23.226;2023-01-26T05:25:42;93.75;;;30.42;;
56242;SDS011;42155;53.096;23.226;2023-01-26T05:27:42;91.55;;;29.17;;
56242;SDS011;42155;53.096;23.226;2023-01-26T05:29:43;91.63;;;29.95;;
56242;SDS011;42155;53.096;23.226;2023-01-26T05:31:43;96.13;;;32.70;;
56242;SDS011;42155;53.096;23.226;2023-01-26T05:33:43;94.90;;;31.80;;
56242;SDS011;42155;53.096;23.226;2023-01-26T05:35:44;91.57;;;30.83;;
56242;SDS011;42155;53.096;23.226;2023-01-26T05:37:44;94.07;;;31.13;;
56242;SDS011;42155;53.096;23.226;2023-01-26T05:39:45;97.72;;;28.77;;
56242;SDS011;42155;53.096;23.226;2023-01-26T05:41:45;93.30;;;31.73;;
56242;SDS011;42155;53.096;23.226;2023-01-26T05:43:45;91.38;;;29.40;;
56242;SDS011;42155;53.096;23.226;2023-01-26T05:45:46;87.50;;;30.13;;
56242;SDS011;42155;53.096;23.226;2023-01-26T05:47:46;91.32;;;30.15;;
56242;SDS011;42155;53.096;23.226;2023-01-26T05:49:47;87.13;;;29.45;;
56242;SDS011;42155;53.096;23.226;2023-01-26T05:51:47;85.25;;;28.63;;
56242;SDS011;42155;53.096;23.226;2023-01-26T05:53:47;86.00;;;29.08;;
56242;SDS011;42155;53.096;23.226;2023-01-26T05:55:48;89.35;;;29.92;;
56242;SDS011;42155;53.096;23.226;2023-01-26T05:57:49;86.68;;;29.77;;
56242;SDS011;42155;53.096;23.226;2023-01-26T05:59:49;82.90;;;29.50;;
56242;SDS011;42155;53.096;23.226;2023-01-26T06:01:49;81.13;;;27.13;;
56242;SDS011;42155;53.096;23.226;2023-01-26T06:03:50;88.03;;;29.30;;
56242;SDS011;42155;53.096;23.226;2023-01-26T06:05:53;98.47;;;30.35;;
56242;SDS011;42155;53.096;23.226;2023-01-26T06:07:54;93.40;;;29.15;;
56242;SDS011;42155;53.096;23.226;2023-01-26T06:09:54;85.63;;;28.63;;
56242;SDS011;42155;53.096;23.226;2023-01-26T06:11:55;91.60;;;29.50;;
56242;SDS011;42155;53.096;23.226;2023-01-26T06:13:56;89.15;;;28.23;;
56242;SDS011;42155;53.096;23.226;2023-01-26T06:15:59;83.85;;;27.08;;
56242;SDS011;42155;53.096;23.226;2023-01-26T06:18:00;84.50;;;28.92;;
56242;SDS011;42155;53.096;23.226;2023-01-26T06:20:00;91.80;;;28.73;;
56242;SDS011;42155;53.096;23.226;2023-01-26T06:22:00;84.20;;;27.23;;
56242;SDS011;42155;53.096;23.226;2023-01-26T06:24:01;85.30;;;28.35;;
56242;SDS011;42155;53.096;23.226;2023-01-26T06:26:02;80.57;;;27.15;;
56242;SDS011;42155;53.096;23.226;2023-01-26T06:28:02;78.72;;;27.45;;
56242;SDS011;42155;53.096;23.226;2023-01-26T06:30:03;74.10;;;25.10;;
56242;SDS011;42155;53.096;23.226;2023-01-26T06:32:04;81.32;;;28.17;;
56242;SDS011;42155;53.096;23.226;2023-01-26T06:34:04;81.40;;;27.42;;
56242;SDS011;42155;53.096;23.226;2023-01-26T06:36:06;76.72;;;27.80;;
56242;SDS011;42155;53.096;23.226;2023-01-26T06:38:08;79.57;;;28.35;;
56242;SDS011;42155;53.096;23.226;2023-01-26T06:40:09;77.85;;;25.65;;
56242;SDS011;42155;53.096;23.226;2023-01-26T06:42:09;78.28;;;29.13;;
56242;SDS011;42155;53.096;23.226;2023-01-26T06:44:10;75.60;;;26.42;;
56242;SDS011;42155;53.096;23.226;2023-01-26T06:46:10;75.18;;;26.33;;
56242;SDS011;42155;53.096;23.226;2023-01-26T06:48:11;76.72;;;27.02;;
56242;SDS011;42155;53.096;23.226;2023-01-26T06:50:13;76.50;;;27.67;;
56242;SDS011;42155;53.096;23.226;2023-01-26T06:52:21;76.20;;;27.45;;
56242;SDS011;42155;53.096;23.226;2023-01-26T06:54:25;78.00;;;26.83;;
56242;SDS011;42155;53.096;23.226;2023-01-26T06:56:25;78.25;;;29.05;;
56242;SDS011;42155;53.096;23.226;2023-01-26T06:58:25;76.45;;;28.63;;
56242;SDS011;42155;53.096;23.226;2023-01-26T07:00:26;75.82;;;27.50;;
56242;SDS011;42155;53.096;23.226;2023-01-26T07:02:26;81.70;;;30.40;;
56242;SDS011;42155;53.096;23.226;2023-01-26T07:04:26;85.93;;;31.58;;
56242;SDS011;42155;53.096;23.226;2023-01-26T07:06:27;78.07;;;28.33;;
56242;SDS011;42155;53.096;23.226;2023-01-26T07:08:27;72.13;;;27.05;;
56242;SDS011;42155;53.096;23.226;2023-01-26T07:10:27;71.15;;;27.38;;
56242;SDS011;42155;53.096;23.226;2023-01-26T07:12:36;76.90;;;27.38;;
56242;SDS011;42155;53.096;23.226;2023-01-26T07:14:40;84.53;;;28.55;;
56242;SDS011;42155;53.096;23.226;2023-01-26T07:16:41;79.20;;;27.73;;
56242;SDS011;42155;53.096;23.226;2023-01-26T07:18:41;82.93;;;27.80;;
56242;SDS011;42155;53.096;23.226;2023-01-26T07:20:42;78.05;;;29.13;;
56242;SDS011;42155;53.096;23.226;2023-01-26T07:22:42;81.43;;;28.27;;
56242;SDS011;42155;53.096;23.226;2023-01-26T07:24:42;82.38;;;26.83;;
56242;SDS011;42155;53.096;23.226;2023-01-26T07:26:43;76.43;;;27.58;;
56242;SDS011;42155;53.096;23.226;2023-01-26T07:28:43;82.78;;;27.70;;
56242;SDS011;42155;53.096;23.226;2023-01-26T07:30:43;78.32;;;29.75;;
56242;SDS011;42155;53.096;23.226;2023-01-26T07:32:44;77.90;;;28.02;;
56242;SDS011;42155;53.096;23.226;2023-01-26T07:34:44;77.32;;;27.95;;
56242;SDS011;42155;53.096;23.226;2023-01-26T07:36:44;80.05;;;27.55;;
56242;SDS011;42155;53.096;23.226;2023-01-26T07:38:45;80.13;;;28.20;;
56242;SDS011;42155;53.096;23.226;2023-01-26T07:40:45;79.63;;;29.25;;
56242;SDS011;42155;53.096;23.226;2023-01-26T07:42:45;74.72;;;27.17;;
56242;SDS011;42155;53.096;23.226;2023-01-26T07:44:46;77.20;;;28.25;;
56242;SDS011;42155;53.096;23.226;2023-01-26T07:46:46;82.70;;;31.13;;
56242;SDS011;42155;53.096;23.226;2023-01-26T07:48:46;76.18;;;28.10;;
56242;SDS011;42155;53.096;23.226;2023-01-26T07:50:47;78.65;;;29.48;;
56242;SDS011;42155;53.096;23.226;2023-01-26T07:52:47;74.97;;;28.73;;
56242;SDS011;42155;53.096;23.226;2023-01-26T07:54:48;75.68;;;27.73;;
56242;SDS011;42155;53.096;23.226;2023-01-26T07:56:51;71.45;;;27.88;;
56242;SDS011;42155;53.096;23.226;2023-01-26T07:58:52;67.95;;;26.33;;
56242;SDS011;42155;53.096;23.226;2023-01-26T08:00:53;73.97;;;26.27;;
56242;SDS011;42155;53.096;23.226;2023-01-26T08:02:54;76.20;;;27.85;;
56242;SDS011;42155;53.096;23.226;2023-01-26T08:04:54;74.22;;;27.27;;
56242;SDS011;42155;53.096;23.226;2023-01-26T08:06:54;71.82;;;26.20;;
56242;SDS011;42155;53.096;23.226;2023-01-26T08:08:55;75.28;;;27.38;;
56242;SDS011;42155;53.096;23.226;2023-01-26T08:10:59;73.13;;;27.25;;
56242;SDS011;42155;53.096;23.226;2023-01-26T08:13:00;72.18;;;25.45;;
56242;SDS011;42155;53.096;23.226;2023-01-26T08:15:00;73.50;;;26.75;;
56242;SDS011;42155;53.096;23.226;2023-01-26T08:17:01;71.15;;;26.17;;
56242;SDS011;42155;53.096;23.226;2023-01-26T08:19:01;78.13;;;26.15;;
56242;SDS011;42155;53.096;23.226;2023-01-26T08:21:02;73.18;;;25.80;;
56242;SDS011;42155;53.096;23.226;2023-01-26T08:23:02;72.78;;;27.58;;
56242;SDS011;42155;53.096;23.226;2023-01-26T08:25:03;76.97;;;28.15;;
56242;SDS011;42155;53.096;23.226;2023-01-26T08:27:03;76.93;;;29.38;;
56242;SDS011;42155;53.096;23.226;2023-01-26T08:29:04;72.25;;;27.17;;
56242;SDS011;42155;53.096;23.226;2023-01-26T08:31:14;76.75;;;27.85;;
56242;SDS011;42155;53.096;23.226;2023-01-26T08:33:17;72.85;;;27.02;;
56242;SDS011;42155;53.096;23.226;2023-01-26T08:35:17;75.20;;;27.10;;
56242;SDS011;42155;53.096;23.226;2023-01-26T08:37:17;67.68;;;24.90;;
56242;SDS011;42155;53.096;23.226;2023-01-26T08:39:18;74.28;;;26.27;;
56242;SDS011;42155;53.096;23.226;2023-01-26T08:41:18;62.13;;;23.38;;
56242;SDS011;42155;53.096;23.226;2023-01-26T08:43:18;70.57;;;24.92;;
56242;SDS011;42155;53.096;23.226;2023-01-26T08:45:19;67.53;;;25.48;;
56242;SDS011;42155;53.096;23.226;2023-01-26T08:47:19;71.60;;;26.25;;
56242;SDS011;42155;53.096;23.226;2023-01-26T08:49:19;69.05;;;25.15;;
56242;SDS011;42155;53.096;23.226;2023-01-26T08:51:20;64.18;;;24.27;;
56242;SDS011;42155;53.096;23.226;2023-01-26T08:53:21;63.30;;;24.73;;
56242;SDS011;42155;53.096;23.226;2023-01-26T08:55:21;62.75;;;24.50;;
56242;SDS011;42155;53.096;23.226;2023-01-26T08:57:22;69.57;;;25.45;;
56242;SDS011;42155;53.096;23.226;2023-01-26T08:59:22;64.57;;;25.27;;
56242;SDS011;42155;53.096;23.226;2023-01-26T09:01:22;60.70;;;23.73;;
56242;SDS011;42155;53.096;23.226;2023-01-26T09:03:23;70.75;;;25.45;;
56242;SDS011;42155;53.096;23.226;2023-01-26T09:05:23;58.33;;;23.33;;
56242;SDS011;42155;53.096;23.226;2023-01-26T09:07:23;61.90;;;23.13;;
56242;SDS011;42155;53.096;23.226;2023-01-26T09:09:24;64.72;;;24.75;;
56242;SDS011;42155;53.096;23.226;2023-01-26T09:11:24;61.38;;;23.50;;
56242;SDS011;42155;53.096;23.226;2023-01-26T09:13:25;59.47;;;23.25;;
56242;SDS011;42155;53.096;23.226;2023-01-26T09:15:25;70.20;;;25.00;;
56242;SDS011;42155;53.096;23.226;2023-01-26T09:17:26;63.15;;;24.90;;
56242;SDS011;42155;53.096;23.226;2023-01-26T09:19:27;59.97;;;23.52;;
56242;SDS011;42155;53.096;23.226;2023-01-26T09:21:27;61.25;;;25.13;;
56242;SDS011;42155;53.096;23.226;2023-01-26T09:23:27;64.22;;;24.40;;
56242;SDS011;42155;53.096;23.226;2023-01-26T09:25:28;66.50;;;25.42;;
56242;SDS011;42155;53.096;23.226;2023-01-26T09:27:28;73.18;;;25.92;;
56242;SDS011;42155;53.096;23.226;2023-01-26T09:29:28;66.18;;;25.42;;
56242;SDS011;42155;53.096;23.226;2023-01-26T09:31:29;64.95;;;24.75;;
56242;SDS011;42155;53.096;23.226;2023-01-26T09:33:29;67.28;;;25.55;;
56242;SDS011;42155;53.096;23.226;2023-01-26T09:35:30;69.70;;;26.45;;
56242;SDS011;42155;53.096;23.226;2023-01-26T09:37:30;62.42;;;24.05;;
56242;SDS011;42155;53.096;23.226;2023-01-26T09:39:30;65.60;;;24.55;;
56242;SDS011;42155;53.096;23.226;2023-01-26T09:43:57;61.55;;;23.13;;
56242;SDS011;42155;53.096;23.226;2023-01-26T09:48:39;64.63;;;25.45;;
56242;SDS011;42155;53.096;23.226;2023-01-26T09:50:43;70.38;;;25.42;;
56242;SDS011;42155;53.096;23.226;2023-01-26T09:53:18;64.88;;;25.30;;
56242;SDS011;42155;53.096;23.226;2023-01-26T09:55:26;60.30;;;23.98;;
56242;SDS011;42155;53.096;23.226;2023-01-26T09:57:37;64.63;;;25.42;;
56242;SDS011;42155;53.096;23.226;2023-01-26T09:59:56;61.05;;;23.50;;
56242;SDS011;42155;53.096;23.226;2023-01-26T10:04:26;65.00;;;25.02;;
56242;SDS011;42155;53.096;23.226;2023-01-26T10:06:29;68.72;;;25.05;;
56242;SDS011;42155;53.096;23.226;2023-01-26T10:08:31;68.85;;;24.38;;
56242;SDS011;42155;53.096;23.226;2023-01-26T10:10:33;70.53;;;26.08;;
56242;SDS011;42155;53.096;23.226;2023-01-26T10:12:38;63.53;;;25.75;;
56242;SDS011;42155;53.096;23.226;2023-01-26T10:14:39;61.58;;;24.20;;
56242;SDS011;42155;53.096;23.226;2023-01-26T10:16:44;66.10;;;25.10;;
56242;SDS011;42155;53.096;23.226;2023-01-26T10:18:59;60.17;;;23.90;;
56242;SDS011;42155;53.096;23.226;2023-01-26T10:21:08;57.90;;;24.35;;
56242;SDS011;42155;53.096;23.226;2023-01-26T10:23:13;62.17;;;23.25;;
56242;SDS011;42155;53.096;23.226;2023-01-26T10:25:17;62.47;;;25.05;;
56242;SDS011;42155;53.096;23.226;2023-01-26T10:27:37;58.33;;;22.95;;
56242;SDS011;42155;53.096;23.226;2023-01-26T10:29:38;58.70;;;23.80;;
56242;SDS011;42155;53.096;23.226;2023-01-26T10:31:38;56.05;;;23.38;;
56242;SDS011;42155;53.096;23.226;2023-01-26T10:33:39;58.38;;;23.40;;
56242;SDS011;42155;53.096;23.226;2023-01-26T10:35:49;62.00;;;23.88;;
56242;SDS011;42155;53.096;23.226;2023-01-26T10:37:49;57.80;;;23.85;;
56242;SDS011;42155;53.096;23.226;2023-01-26T10:39:57;63.42;;;23.75;;
56242;SDS011;42155;53.096;23.226;2023-01-26T10:42:00;55.00;;;22.63;;
56242;SDS011;42155;53.096;23.226;2023-01-26T10:48:24;57.83;;;24.48;;
56242;SDS011;42155;53.096;23.226;2023-01-26T10:50:24;64.95;;;24.50;;
56242;SDS011;42155;53.096;23.226;2023-01-26T10:52:24;62.53;;;23.50;;
56242;SDS011;42155;53.096;23.226;2023-01-26T10:54:25;65.30;;;25.58;;
56242;SDS011;42155;53.096;23.226;2023-01-26T10:56:26;59.75;;;22.85;;
56242;SDS011;42155;53.096;23.226;2023-01-26T10:58:37;59.60;;;23.45;;
56242;SDS011;42155;53.096;23.226;2023-01-26T11:00:42;67.55;;;26.05;;
56242;SDS011;42155;53.096;23.226;2023-01-26T11:02:47;55.08;;;22.88;;
56242;SDS011;42155;53.096;23.226;2023-01-26T11:09:26;49.33;;;21.13;;
56242;SDS011;42155;53.096;23.226;2023-01-26T11:11:28;55.55;;;22.75;;
56242;SDS011;42155;53.096;23.226;2023-01-26T11:13:28;52.97;;;22.52;;
56242;SDS011;42155;53.096;23.226;2023-01-26T11:15:29;60.78;;;23.48;;
56242;SDS011;42155;53.096;23.226;2023-01-26T11:17:36;54.85;;;22.30;;
56242;SDS011;42155;53.096;23.226;2023-01-26T11:22:28;49.67;;;21.60;;
56242;SDS011;42155;53.096;23.226;2023-01-26T11:31:21;44.53;;;18.92;;
56242;SDS011;42155;53.096;23.226;2023-01-26T11:35:39;43.80;;;19.95;;
56242;SDS011;42155;53.096;23.226;2023-01-26T11:40:25;46.08;;;20.60;;
56242;SDS011;42155;53.096;23.226;2023-01-26T11:42:34;48.97;;;20.38;;
56242;SDS011;42155;53.096;23.226;2023-01-26T11:49:56;53.97;;;21.70;;
56242;SDS011;42155;53.096;23.226;2023-01-26T11:54:29;47.78;;;19.50;;
56242;SDS011;42155;53.096;23.226;2023-01-26T12:01:53;50.92;;;20.65;;
56242;SDS011;42155;53.096;23.226;2023-01-26T12:04:16;47.80;;;19.83;;
56242;SDS011;42155;53.096;23.226;2023-01-26T12:06:19;46.70;;;19.52;;
56242;SDS011;42155;53.096;23.226;2023-01-26T12:08:28;44.80;;;19.00;;
56242;SDS011;42155;53.096;23.226;2023-01-26T12:12:52;47.80;;;19.75;;
56242;SDS011;42155;53.096;23.226;2023-01-26T12:15:13;44.78;;;19.15;;
56242;SDS011;42155;53.096;23.226;2023-01-26T12:21:59;45.50;;;19.38;;
56242;SDS011;42155;53.096;23.226;2023-01-26T12:24:05;45.95;;;18.88;;
56242;SDS011;42155;53.096;23.226;2023-01-26T12:26:12;44.72;;;20.35;;
56242;SDS011;42155;53.096;23.226;2023-01-26T12:28:19;53.00;;;22.00;;
56242;SDS011;42155;53.096;23.226;2023-01-26T12:32:24;54.05;;;21.42;;
56242;SDS011;42155;53.096;23.226;2023-01-26T12:34:26;51.97;;;22.02;;
56242;SDS011;42155;53.096;23.226;2023-01-26T12:43:38;47.50;;;20.35;;
56242;SDS011;42155;53.096;23.226;2023-01-26T12:45:44;44.72;;;19.23;;
56242;SDS011;42155;53.096;23.226;2023-01-26T12:47:52;51.30;;;20.52;;